createdAt,value
2018-09-11T00:01:22.551Z,9.83
2018-09-11T00:03:52.417Z,7.40
2018-09-11T00:06:22.365Z,7.90
2018-09-11T00:08:52.525Z,7.60
2018-09-11T00:11:22.370Z,9.67
2018-09-11T00:13:50.968Z,9.13
2018-09-11T00:16:19.504Z,8.23
2018-09-11T00:18:48.023Z,8.03
2018-09-11T00:21:16.672Z,7.47
2018-09-11T00:23:45.251Z,11.10
2018-09-11T00:26:13.784Z,7.80
2018-09-11T00:28:42.382Z,7.03
2018-09-11T00:31:11.305Z,7.53
2018-09-11T00:33:39.800Z,9.90
2018-09-11T00:36:08.387Z,8.23
2018-09-11T00:38:36.984Z,10.13
2018-09-11T00:41:05.529Z,7.03
2018-09-11T00:43:34.098Z,7.10
2018-09-11T00:46:02.637Z,7.60
2018-09-11T00:48:31.228Z,7.17
2018-09-11T00:50:59.777Z,8.23
2018-09-11T00:53:28.409Z,8.43
2018-09-11T00:55:56.943Z,7.80
2018-09-11T00:58:25.478Z,7.40
2018-09-11T01:00:54.028Z,8.33
2018-09-11T01:03:22.586Z,9.03
2018-09-11T01:05:51.120Z,8.50
2018-09-11T01:08:19.644Z,9.73
2018-09-11T01:10:48.474Z,7.87
2018-09-11T01:13:17.017Z,7.50
2018-09-11T01:15:45.559Z,8.17
2018-09-11T01:18:14.114Z,9.53
2018-09-11T01:20:42.711Z,9.50
2018-09-11T01:23:11.555Z,7.20
2018-09-11T01:25:40.050Z,7.73
2018-09-11T01:28:08.570Z,8.00
2018-09-11T01:30:37.119Z,7.50
2018-09-11T01:33:05.664Z,8.27
2018-09-11T01:35:34.181Z,8.17
2018-09-11T01:38:02.727Z,10.70
2018-09-11T01:40:31.281Z,8.17
2018-09-11T01:42:59.820Z,7.97
2018-09-11T01:45:28.633Z,8.03
2018-09-11T01:47:57.213Z,7.43
2018-09-11T01:50:26.072Z,8.20
2018-09-11T01:52:54.908Z,8.07
2018-09-11T01:55:23.453Z,7.97
2018-09-11T01:57:51.969Z,11.13
2018-09-11T02:00:21.805Z,13.90
2018-09-11T02:02:50.344Z,7.97
2018-09-11T02:05:18.885Z,8.17
2018-09-11T02:07:47.468Z,9.60
2018-09-11T02:10:15.990Z,7.10
2018-09-11T02:12:44.549Z,9.00
2018-09-11T02:15:13.332Z,8.47
2018-09-11T02:17:42.270Z,7.87
2018-09-11T02:20:10.859Z,8.37
2018-09-11T02:22:39.413Z,8.30
2018-09-11T02:25:07.967Z,9.87
2018-09-11T02:27:36.473Z,8.27
2018-09-11T02:30:05.084Z,8.07
2018-09-11T02:32:33.970Z,11.50
2018-09-11T02:35:02.469Z,8.67
2018-09-11T02:37:30.970Z,10.93
2018-09-11T02:39:59.603Z,11.03
2018-09-11T02:42:28.150Z,8.27
2018-09-11T02:44:56.715Z,8.57
2018-09-11T02:47:25.228Z,8.97
2018-09-11T02:49:53.761Z,9.10
2018-09-11T02:52:22.314Z,7.87
2018-09-11T02:54:50.889Z,10.27
2018-09-11T02:57:19.408Z,8.90
2018-09-11T02:59:47.950Z,7.70
2018-09-11T03:02:16.689Z,9.27
2018-09-11T03:04:45.220Z,8.17
2018-09-11T03:07:13.750Z,7.83
2018-09-11T03:09:42.268Z,9.00
2018-09-11T03:12:10.811Z,8.30
2018-09-11T03:14:39.316Z,9.00
2018-09-11T03:17:07.973Z,10.00
2018-09-11T03:19:36.519Z,8.47
2018-09-11T03:22:05.091Z,8.40
2018-09-11T03:24:33.696Z,9.13
2018-09-11T03:27:02.226Z,9.40
2018-09-11T03:29:30.719Z,8.90
2018-09-11T03:31:59.249Z,9.43
2018-09-11T03:34:27.758Z,9.60
2018-09-11T03:36:56.299Z,9.47
2018-09-11T03:39:24.838Z,7.43
2018-09-11T03:41:53.384Z,7.67
2018-09-11T03:44:22.032Z,9.50
2018-09-11T03:46:50.504Z,8.73
2018-09-11T03:49:19.033Z,8.67
2018-09-11T03:51:47.560Z,9.63
2018-09-11T03:54:16.062Z,9.27
2018-09-11T03:56:44.624Z,10.10
2018-09-11T03:59:13.172Z,9.47
2018-09-11T04:01:41.661Z,9.37
2018-09-11T04:04:10.223Z,10.07
2018-09-11T04:06:38.748Z,9.70
2018-09-11T04:09:09.976Z,8.80
2018-09-11T04:11:38.572Z,9.40
2018-09-11T04:14:07.103Z,8.43
2018-09-11T04:16:35.656Z,9.37
2018-09-11T04:19:04.581Z,8.77
2018-09-11T04:21:33.097Z,9.67
2018-09-11T04:24:01.621Z,9.87
2018-09-11T04:26:30.207Z,9.03
2018-09-11T04:28:58.804Z,9.80
2018-09-11T04:31:27.504Z,10.67
2018-09-11T04:33:56.443Z,10.27
2018-09-11T04:36:25.033Z,11.13
2018-09-11T04:38:53.496Z,10.03
2018-09-11T04:41:22.050Z,11.03
2018-09-11T04:43:50.649Z,10.87
2018-09-11T04:46:19.140Z,10.57
2018-09-11T04:48:47.663Z,12.13
2018-09-11T04:51:16.188Z,10.63
2018-09-11T04:53:44.782Z,10.20
2018-09-11T04:56:13.426Z,9.67
2018-09-11T04:58:41.924Z,11.00
2018-09-11T05:01:10.448Z,13.17
2018-09-11T05:03:38.993Z,10.00
2018-09-11T05:06:07.790Z,11.97
2018-09-11T05:08:36.395Z,11.30
2018-09-11T05:11:06.084Z,13.20
2018-09-11T05:13:34.621Z,11.93
2018-09-11T05:16:03.188Z,12.90
2018-09-11T05:18:31.747Z,12.13
2018-09-11T05:21:00.624Z,12.07
2018-09-11T05:23:29.221Z,13.47
2018-09-11T05:25:57.833Z,13.13
2018-09-11T05:28:26.374Z,13.17
2018-09-11T05:30:54.917Z,13.90
2018-09-11T05:33:23.459Z,15.87
2018-09-11T05:35:52.019Z,13.63
2018-09-11T05:38:20.567Z,15.70
2018-09-11T05:40:49.100Z,12.87
2018-09-11T05:43:17.720Z,14.43
2018-09-11T05:45:46.509Z,12.63
2018-09-11T05:48:15.067Z,12.70
2018-09-11T05:50:43.680Z,11.93
2018-09-11T05:53:12.227Z,11.43
2018-09-11T05:55:40.745Z,13.00
2018-09-11T05:58:09.287Z,13.37
2018-09-11T06:00:37.856Z,12.57
2018-09-11T06:03:06.803Z,15.93
2018-09-11T06:05:35.370Z,13.93
2018-09-11T06:08:03.940Z,13.50
2018-09-11T06:10:32.597Z,13.43
2018-09-11T06:13:01.118Z,14.57
2018-09-11T06:15:29.691Z,13.37
2018-09-11T06:17:58.401Z,11.20
2018-09-11T06:20:26.935Z,15.53
2018-09-11T06:22:55.527Z,11.43
2018-09-11T06:25:24.082Z,11.53
2018-09-11T06:27:52.681Z,14.27
2018-09-11T06:30:21.310Z,15.17
2018-09-11T06:32:49.890Z,14.67
2018-09-11T06:35:18.459Z,11.10
2018-09-11T06:37:47.029Z,11.87
2018-09-11T06:40:15.607Z,10.70
2018-09-11T06:42:44.153Z,13.20
2018-09-11T06:45:12.667Z,11.97
2018-09-11T06:47:41.231Z,12.30
2018-09-11T06:50:09.817Z,14.20
2018-09-11T06:52:38.395Z,11.63
2018-09-11T06:55:07.001Z,13.80
2018-09-11T06:57:35.586Z,11.63
2018-09-11T07:00:04.296Z,10.47
2018-09-11T07:02:32.889Z,10.63
2018-09-11T07:05:01.435Z,10.13
2018-09-11T07:07:30.425Z,10.67
2018-09-11T07:09:59.144Z,10.13
2018-09-11T07:12:27.742Z,9.47
2018-09-11T07:14:56.332Z,12.33
2018-09-11T07:17:24.869Z,10.07
2018-09-11T07:19:53.720Z,9.60
2018-09-11T07:22:22.438Z,8.60
2018-09-11T07:24:51.088Z,9.20
2018-09-11T07:27:20.097Z,16.43
2018-09-11T07:29:49.083Z,12.67
2018-09-11T07:32:17.668Z,9.00
2018-09-11T07:34:46.242Z,11.57
2018-09-11T07:37:14.755Z,12.37
2018-09-11T07:39:43.242Z,8.73
2018-09-11T07:42:12.616Z,9.73
2018-09-11T07:44:41.154Z,8.83
2018-09-11T07:47:09.844Z,10.30
2018-09-11T07:49:38.495Z,11.47
2018-09-11T07:52:07.513Z,10.57
2018-09-11T07:54:36.099Z,11.00
2018-09-11T07:57:04.632Z,9.03
2018-09-11T07:59:33.231Z,8.20
2018-09-11T08:02:01.807Z,8.33
2018-09-11T08:04:30.412Z,9.07
2018-09-11T08:06:59.279Z,7.30
2018-09-11T08:09:27.868Z,9.37
2018-09-11T08:11:56.439Z,6.90
2018-09-11T08:14:24.948Z,8.63
2018-09-11T08:16:53.477Z,7.20
2018-09-11T08:19:22.004Z,8.50
2018-09-11T08:21:50.549Z,8.50
2018-09-11T08:24:19.117Z,8.97
2018-09-11T08:26:47.668Z,7.50
2018-09-11T08:29:16.367Z,6.77
2018-09-11T08:31:44.894Z,8.97
2018-09-11T08:34:13.590Z,7.60
2018-09-11T08:36:42.110Z,10.13
2018-09-11T08:39:11.394Z,8.70
2018-09-11T08:41:39.915Z,9.67
2018-09-11T08:44:08.481Z,6.87
2018-09-11T08:46:37.300Z,10.33
2018-09-11T08:49:06.143Z,8.50
2018-09-11T08:51:34.664Z,6.47
2018-09-11T08:54:03.280Z,7.13
2018-09-11T08:56:31.790Z,6.00
2018-09-11T08:59:00.458Z,10.03
2018-09-11T09:01:28.985Z,6.77
2018-09-11T09:03:57.629Z,6.83
2018-09-11T09:06:26.144Z,8.73
2018-09-11T09:08:54.739Z,7.33
2018-09-11T09:11:23.450Z,7.33
2018-09-11T09:13:51.962Z,7.97
2018-09-11T09:16:20.793Z,6.73
2018-09-11T09:18:49.707Z,7.33
2018-09-11T09:21:18.245Z,8.90
2018-09-11T09:23:46.779Z,7.60
2018-09-11T09:26:15.341Z,7.90
2018-09-11T09:28:43.931Z,6.07
2018-09-11T09:31:12.558Z,8.40
2018-09-11T09:33:41.064Z,7.87
2018-09-11T09:36:09.631Z,8.67
2018-09-11T09:38:38.225Z,8.00
2018-09-11T09:41:06.746Z,7.43
2018-09-11T09:43:35.298Z,6.73
2018-09-11T09:46:03.895Z,6.20
2018-09-11T09:48:32.491Z,13.63
2018-09-11T09:51:01.032Z,10.37
2018-09-11T09:53:29.624Z,6.70
2018-09-11T09:55:58.255Z,8.10
2018-09-11T09:58:26.816Z,6.60
2018-09-11T10:01:01.441Z,5.73
2018-09-11T10:03:30.540Z,6.60
2018-09-11T10:05:59.088Z,6.73
2018-09-11T10:08:27.912Z,6.97
2018-09-11T10:10:56.583Z,7.17
2018-09-11T10:13:25.207Z,5.53
2018-09-11T10:15:53.944Z,6.83
2018-09-11T10:18:22.526Z,9.80
2018-09-11T10:20:51.139Z,6.90
2018-09-11T10:23:19.844Z,6.20
2018-09-11T10:25:48.544Z,7.87
2018-09-11T10:28:17.381Z,6.77
2018-09-11T10:30:46.142Z,5.80
2018-09-11T10:33:14.765Z,7.47
2018-09-11T10:35:43.324Z,4.97
2018-09-11T10:38:11.857Z,7.43
2018-09-11T10:40:40.465Z,5.60
2018-09-11T10:43:09.006Z,5.37
2018-09-11T10:45:37.686Z,5.47
2018-09-11T10:48:06.905Z,5.63
2018-09-11T10:50:35.496Z,6.60
2018-09-11T10:53:04.272Z,4.73
2018-09-11T10:55:32.839Z,6.47
2018-09-11T10:58:01.606Z,6.83
2018-09-11T11:00:31.223Z,6.15
2018-09-11T11:02:59.749Z,6.85
2018-09-11T11:05:28.497Z,5.20
2018-09-11T11:07:57.820Z,5.12
2018-09-11T11:10:26.433Z,4.83
2018-09-11T11:12:54.969Z,4.55
2018-09-11T11:15:23.838Z,7.78
2018-09-11T11:17:52.851Z,5.17
2018-09-11T11:20:21.560Z,4.40
2018-09-11T11:22:50.142Z,6.83
2018-09-11T11:25:18.727Z,5.25
2018-09-11T11:27:47.312Z,9.83
2018-09-11T11:30:16.483Z,4.25
2018-09-11T11:32:45.398Z,4.62
2018-09-11T11:35:14.149Z,5.95
2018-09-11T11:37:42.890Z,6.95
2018-09-11T11:40:11.499Z,5.10
2018-09-11T11:42:40.179Z,7.10
2018-09-11T11:45:09.097Z,6.78
2018-09-11T11:47:37.861Z,5.55
2018-09-11T11:50:07.098Z,3.30
2018-09-11T11:52:35.681Z,4.37
2018-09-11T11:55:05.029Z,4.40
2018-09-11T11:57:33.503Z,4.45
2018-09-11T12:00:02.205Z,3.80
2018-09-11T12:02:30.806Z,3.98
2018-09-11T12:04:59.476Z,3.90
2018-09-11T12:07:28.272Z,5.35
2018-09-11T12:09:57.200Z,4.10
2018-09-11T12:12:26.101Z,4.20
2018-09-11T12:14:54.661Z,4.28
2018-09-11T12:17:23.500Z,3.62
2018-09-11T12:19:52.085Z,3.70
2018-09-11T12:22:21.419Z,3.65
2018-09-11T12:24:49.923Z,7.72
2018-09-11T12:27:19.165Z,3.10
2018-09-11T12:29:48.616Z,4.33
2018-09-11T12:32:17.290Z,3.20
2018-09-11T12:34:45.971Z,4.28
2018-09-11T12:37:14.551Z,4.83
2018-09-11T12:39:43.124Z,3.10
2018-09-11T12:42:12.068Z,5.83
2018-09-11T12:44:40.656Z,5.08
2018-09-11T12:47:10.986Z,3.65
2018-09-11T12:49:40.569Z,3.40
2018-09-11T12:52:09.167Z,3.72
2018-09-11T12:54:38.432Z,4.20
2018-09-11T12:57:08.018Z,12.05
2018-09-11T12:59:36.652Z,5.00
2018-09-11T13:02:05.270Z,4.30
2018-09-11T13:04:33.844Z,4.12
2018-09-11T13:07:02.430Z,3.70
2018-09-11T13:09:31.187Z,6.12
2018-09-11T13:11:59.889Z,3.83
2018-09-11T13:14:28.686Z,6.33
2018-09-11T13:16:57.259Z,5.92
2018-09-11T13:19:26.412Z,3.80
2018-09-11T13:21:55.165Z,3.83
2018-09-11T13:24:23.841Z,5.97
2018-09-11T13:26:53.054Z,5.10
2018-09-11T13:29:21.805Z,5.25
2018-09-11T13:31:50.788Z,6.97
2018-09-11T13:34:19.306Z,4.05
2018-09-11T13:36:47.879Z,4.85
2018-09-11T13:39:16.399Z,5.35
2018-09-11T13:41:45.056Z,6.42
2018-09-11T13:44:13.592Z,5.92
2018-09-11T13:46:42.162Z,4.60
2018-09-11T13:49:11.852Z,3.30
2018-09-11T13:51:40.411Z,4.45
2018-09-11T13:54:08.999Z,3.52
2018-09-11T13:56:37.576Z,3.55
2018-09-11T13:59:06.376Z,5.53
2018-09-11T14:01:35.173Z,4.47
2018-09-11T14:04:03.761Z,7.05
2018-09-11T14:06:32.312Z,3.42
2018-09-11T14:09:01.384Z,3.35
2018-09-11T14:11:30.007Z,6.08
2018-09-11T14:13:58.568Z,3.70
2018-09-11T14:16:28.157Z,3.87
2018-09-11T14:18:57.575Z,5.50
2018-09-11T14:21:27.073Z,4.20
2018-09-11T14:23:56.570Z,5.87
2018-09-11T14:26:25.996Z,4.45
2018-09-11T14:28:55.553Z,4.30
2018-09-11T14:31:25.141Z,4.05
2018-09-11T14:33:54.639Z,3.60
2018-09-11T14:36:24.091Z,3.70
2018-09-11T14:38:54.054Z,7.62
2018-09-11T14:41:23.945Z,3.15
2018-09-11T14:43:53.321Z,5.03
2018-09-11T14:46:22.727Z,4.42
2018-09-11T14:48:52.600Z,3.75
2018-09-11T14:51:22.289Z,3.33
2018-09-11T14:53:50.904Z,6.35
2018-09-11T14:56:19.423Z,3.60
2018-09-11T14:58:47.977Z,4.72
2018-09-11T15:01:16.521Z,4.10
2018-09-11T15:03:45.096Z,5.58
2018-09-11T15:06:13.611Z,5.58
2018-09-11T15:08:42.185Z,3.62
2018-09-11T15:11:10.925Z,4.65
2018-09-11T15:13:39.543Z,4.10
2018-09-11T15:16:08.102Z,6.62
2018-09-11T15:18:36.749Z,3.42
2018-09-11T15:21:05.331Z,4.03
2018-09-11T15:23:33.868Z,3.70
2018-09-11T15:26:02.504Z,5.67
2018-09-11T15:28:31.534Z,4.17
2018-09-11T15:31:00.079Z,3.52
2018-09-11T15:33:28.632Z,4.53
2018-09-11T15:35:57.293Z,4.05
2018-09-11T15:38:25.939Z,3.47
2018-09-11T15:40:54.510Z,3.50
2018-09-11T15:43:23.086Z,3.17
2018-09-11T15:45:51.688Z,4.97
2018-09-11T15:48:23.133Z,4.67
2018-09-11T15:50:51.650Z,4.80
2018-09-11T15:53:20.179Z,4.05
2018-09-11T15:55:48.731Z,3.47
2018-09-11T15:58:17.333Z,3.83
2018-09-11T16:00:45.917Z,3.90
2018-09-11T16:03:15.405Z,4.47
2018-09-11T16:05:43.937Z,4.25
2018-09-11T16:08:13.157Z,4.78
2018-09-11T16:10:41.772Z,4.08
2018-09-11T16:13:10.343Z,6.50
2018-09-11T16:15:38.868Z,3.60
2018-09-11T16:18:07.415Z,4.85
2018-09-11T16:20:35.949Z,3.12
2018-09-11T16:23:04.479Z,4.67
2018-09-11T16:25:33.044Z,3.12
2018-09-11T16:28:01.576Z,3.87
2018-09-11T16:30:30.116Z,7.58
2018-09-11T16:32:58.681Z,4.15
2018-09-11T16:35:27.370Z,4.20
2018-09-11T16:37:55.897Z,3.80
2018-09-11T16:40:24.469Z,5.67
2018-09-11T16:42:52.992Z,4.03
2018-09-11T16:45:21.580Z,8.00
2018-09-11T16:47:50.114Z,9.35
2018-09-11T16:50:18.714Z,4.80
2018-09-11T16:52:47.239Z,4.70
2018-09-11T16:55:15.829Z,5.85
2018-09-11T16:57:44.359Z,7.12
2018-09-11T17:00:12.977Z,3.80
2018-09-11T17:02:41.509Z,7.35
2018-09-11T17:05:10.061Z,5.28
2018-09-11T17:07:38.580Z,5.17
2018-09-11T17:10:07.356Z,4.40
2018-09-11T17:12:35.866Z,4.42
2018-09-11T17:15:04.457Z,4.37
2018-09-11T17:17:33.005Z,5.28
2018-09-11T17:20:01.570Z,5.62
2018-09-11T17:22:30.112Z,5.30
2018-09-11T17:24:58.672Z,6.67
2018-09-11T17:27:27.203Z,7.08
2018-09-11T17:29:56.024Z,5.45
2018-09-11T17:32:24.540Z,5.80
2018-09-11T17:34:53.173Z,6.10
2018-09-11T17:37:21.741Z,10.77
2018-09-11T17:39:50.446Z,16.90
2018-09-11T17:42:19.039Z,17.80
2018-09-11T17:44:47.779Z,9.40
2018-09-11T17:47:16.289Z,12.63
2018-09-11T17:49:44.860Z,9.40
2018-09-11T17:52:13.413Z,7.07
2018-09-11T17:54:42.860Z,7.70
2018-09-11T17:57:11.379Z,8.07
2018-09-11T17:59:39.928Z,8.37
2018-09-11T18:02:08.628Z,9.43
2018-09-11T18:04:37.746Z,8.47
2018-09-11T18:07:06.272Z,6.83
2018-09-11T18:09:34.836Z,10.17
2018-09-11T18:12:03.367Z,6.30
2018-09-11T18:14:31.926Z,6.43
2018-09-11T18:17:00.448Z,8.30
2018-09-11T18:19:28.991Z,9.27
2018-09-11T18:21:57.536Z,13.37
2018-09-11T18:24:26.453Z,9.13
2018-09-11T18:26:55.571Z,11.07
2018-09-11T18:29:24.362Z,10.17
2018-09-11T18:31:52.933Z,8.93
2018-09-11T18:34:21.500Z,7.10
2018-09-11T18:36:50.637Z,9.23
2018-09-11T18:39:19.166Z,10.03
2018-09-11T18:41:48.691Z,12.10
2018-09-11T18:44:17.244Z,9.43
2018-09-11T18:46:45.925Z,8.17
2018-09-11T18:49:14.453Z,11.37
2018-09-11T18:51:43.065Z,8.53
2018-09-11T18:54:11.554Z,8.63
2018-09-11T18:56:40.399Z,32.60
2018-09-11T18:59:09.302Z,13.93
2018-09-11T19:01:37.854Z,8.13
2018-09-11T19:04:06.571Z,8.87
2018-09-11T19:06:35.538Z,9.33
2018-09-11T19:09:05.478Z,8.97
2018-09-11T19:11:34.033Z,9.20
2018-09-11T19:14:02.598Z,10.33
2018-09-11T19:16:31.748Z,8.80
2018-09-11T19:19:00.665Z,7.23
2018-09-11T19:21:29.413Z,6.63
2018-09-11T19:23:58.982Z,8.27
2018-09-11T19:26:28.522Z,9.13
2018-09-11T19:28:58.267Z,12.93
2018-09-11T19:31:27.951Z,10.73
2018-09-11T19:33:57.364Z,9.77
2018-09-11T19:36:26.894Z,10.23
2018-09-11T19:38:56.440Z,14.77
2018-09-11T19:41:26.246Z,14.90
2018-09-11T19:43:54.817Z,14.30
2018-09-11T19:46:24.220Z,11.77
2018-09-11T19:48:53.849Z,8.60
2018-09-11T19:51:23.587Z,6.17
2018-09-11T19:53:53.362Z,6.47
2018-09-11T19:56:22.735Z,8.03
2018-09-11T19:58:52.287Z,5.90
2018-09-11T20:01:21.671Z,6.43
2018-09-11T20:03:51.388Z,7.73
2018-09-11T20:06:21.045Z,9.27
2018-09-11T20:08:51.128Z,8.90
2018-09-11T20:11:20.570Z,7.67
2018-09-11T20:13:49.481Z,7.23
2018-09-11T20:16:18.018Z,9.53
2018-09-11T20:18:46.672Z,8.70
2018-09-11T20:21:15.142Z,11.47
2018-09-11T20:23:43.656Z,9.17
2018-09-11T20:26:12.191Z,8.10
2018-09-11T20:28:40.714Z,10.70
2018-09-11T20:31:09.224Z,7.30
2018-09-11T20:33:37.929Z,6.57
2018-09-11T20:36:06.513Z,7.93
2018-09-11T20:38:35.356Z,6.97
2018-09-11T20:41:04.016Z,7.60
2018-09-11T20:43:32.821Z,6.40
2018-09-11T20:46:01.341Z,8.27
2018-09-11T20:48:29.893Z,7.00
2018-09-11T20:50:58.391Z,6.60
2018-09-11T20:53:26.939Z,6.80
2018-09-11T20:55:55.507Z,7.43
2018-09-11T20:58:24.110Z,9.33
2018-09-11T21:00:52.618Z,7.60
2018-09-11T21:03:21.170Z,7.63
2018-09-11T21:05:49.788Z,7.47
2018-09-11T21:08:18.388Z,7.93
2018-09-11T21:10:47.055Z,8.73
2018-09-11T21:13:15.603Z,11.97
2018-09-11T21:15:44.142Z,7.60
2018-09-11T21:18:12.702Z,11.53
2018-09-11T21:20:41.324Z,7.70
2018-09-11T21:23:10.372Z,8.43
2018-09-11T21:25:38.997Z,10.23
2018-09-11T21:28:07.824Z,9.83
2018-09-11T21:30:36.390Z,21.93
2018-09-11T21:33:04.949Z,10.70
2018-09-11T21:35:33.460Z,9.30
2018-09-11T21:38:02.012Z,10.80
2018-09-11T21:40:31.336Z,12.47
2018-09-11T21:42:59.964Z,7.50
2018-09-11T21:45:28.508Z,10.83
2018-09-11T21:47:57.096Z,9.17
2018-09-11T21:50:25.623Z,11.43
2018-09-11T21:52:54.176Z,9.13
2018-09-11T21:55:22.759Z,11.77
2018-09-11T21:57:51.359Z,9.13
2018-09-11T22:00:19.968Z,9.17
2018-09-11T22:02:48.871Z,8.60
2018-09-11T22:05:17.392Z,7.77
2018-09-11T22:07:45.906Z,10.97
2018-09-11T22:10:14.448Z,9.70
2018-09-11T22:12:43.020Z,9.10
2018-09-11T22:15:12.140Z,8.60
2018-09-11T22:17:40.693Z,12.47
2018-09-11T22:20:09.367Z,12.77
2018-09-11T22:22:38.045Z,9.73
2018-09-11T22:25:06.585Z,9.80
2018-09-11T22:27:35.123Z,9.07
2018-09-11T22:30:03.707Z,9.73
2018-09-11T22:32:32.229Z,12.10
2018-09-11T22:35:00.761Z,10.77
2018-09-11T22:37:29.295Z,11.60
2018-09-11T22:39:57.838Z,10.17
2018-09-11T22:42:26.451Z,10.57
2018-09-11T22:44:55.037Z,9.37
2018-09-11T22:47:23.980Z,9.40
2018-09-11T22:49:52.552Z,9.03
2018-09-11T22:52:21.063Z,11.13
2018-09-11T22:54:49.631Z,8.90
2018-09-11T22:57:18.327Z,9.00
2018-09-11T22:59:46.912Z,10.37
2018-09-11T23:02:15.422Z,10.33
2018-09-11T23:04:43.945Z,10.87
2018-09-11T23:07:12.494Z,11.20
2018-09-11T23:09:41.032Z,10.40
2018-09-11T23:12:09.541Z,9.07
2018-09-11T23:14:38.393Z,10.47
2018-09-11T23:17:06.919Z,9.53
2018-09-11T23:19:35.485Z,9.37
2018-09-11T23:22:04.067Z,9.80
2018-09-11T23:24:32.893Z,11.20
2018-09-11T23:27:01.477Z,11.80
2018-09-11T23:29:29.999Z,11.70
2018-09-11T23:31:58.559Z,10.10
2018-09-11T23:34:27.114Z,10.53
2018-09-11T23:36:55.653Z,9.03
2018-09-11T23:39:24.150Z,9.77
2018-09-11T23:41:52.665Z,11.07
2018-09-11T23:44:21.285Z,11.73
2018-09-11T23:46:49.829Z,9.43
2018-09-11T23:49:18.359Z,9.10
2018-09-11T23:51:46.915Z,12.40
2018-09-11T23:54:22.152Z,9.23
2018-09-11T23:56:50.673Z,9.87
2018-09-11T23:59:19.220Z,10.30
